Winnisquam, New Hampshire
Current Conditions -  °F | °C
As of 9:35 PM on Thursday 20 Nov 2014 (Local Time) from KLCI Reporting Station
Clear Clear  
Wind Chill: 18°   Ceiling: Unl
Heat Index: 28°   Visibility: 10mi
Dew Point:   Wind: 13mph
Humidity: 43%   Direction: 250°WSW
Pressure: 29.83"   Gusts: 17mph
Location:  43.5°N, 71.51°W
Report Text: KLCI 210235Z AUTO 25011G15KT 10SM CLR M02/M13 A2983 RMK AO1
Loading
Personal Weather Stations






























Interactive Weather Map New forecast layout! Learn more

10-Day Weather Forecast

Advertisements
Track Severe Weather on mobile